sensor_id;sensor_type;location;lat;lon;timestamp;P1;durP1;ratioP1;P2;durP2;ratioP2
11663;SDS011;72375;59.302;18.204;2024-01-27T00:00:33;0.60;;;0.50;;
11663;SDS011;72375;59.302;18.204;2024-01-27T00:03:19;1.57;;;0.83;;
11663;SDS011;72375;59.302;18.204;2024-01-27T00:06:05;0.90;;;0.50;;
11663;SDS011;72375;59.302;18.204;2024-01-27T00:08:50;0.80;;;0.80;;
11663;SDS011;72375;59.302;18.204;2024-01-27T00:11:36;0.80;;;0.60;;
11663;SDS011;72375;59.302;18.204;2024-01-27T00:14:22;1.00;;;0.60;;
11663;SDS011;72375;59.302;18.204;2024-01-27T00:17:08;0.50;;;0.50;;
11663;SDS011;72375;59.302;18.204;2024-01-27T00:19:54;0.80;;;0.60;;
11663;SDS011;72375;59.302;18.204;2024-01-27T00:22:39;0.67;;;0.60;;
11663;SDS011;72375;59.302;18.204;2024-01-27T00:25:25;0.90;;;0.70;;
11663;SDS011;72375;59.302;18.204;2024-01-27T00:28:11;0.83;;;0.70;;
11663;SDS011;72375;59.302;18.204;2024-01-27T00:30:57;1.30;;;0.80;;
11663;SDS011;72375;59.302;18.204;2024-01-27T00:33:44;0.87;;;0.70;;
11663;SDS011;72375;59.302;18.204;2024-01-27T00:36:29;0.80;;;0.70;;
11663;SDS011;72375;59.302;18.204;2024-01-27T00:39:15;1.07;;;0.80;;
11663;SDS011;72375;59.302;18.204;2024-01-27T00:42:01;0.93;;;0.83;;
11663;SDS011;72375;59.302;18.204;2024-01-27T00:44:47;1.57;;;0.70;;
11663;SDS011;72375;59.302;18.204;2024-01-27T00:47:32;1.90;;;0.83;;
11663;SDS011;72375;59.302;18.204;2024-01-27T00:50:19;2.73;;;1.00;;
11663;SDS011;72375;59.302;18.204;2024-01-27T00:53:05;1.07;;;0.87;;
11663;SDS011;72375;59.302;18.204;2024-01-27T00:55:51;1.10;;;1.00;;
11663;SDS011;72375;59.302;18.204;2024-01-27T00:58:36;1.47;;;0.93;;
11663;SDS011;72375;59.302;18.204;2024-01-27T01:01:22;1.20;;;0.90;;
11663;SDS011;72375;59.302;18.204;2024-01-27T01:04:08;1.13;;;0.87;;
11663;SDS011;72375;59.302;18.204;2024-01-27T01:06:55;1.60;;;1.07;;
11663;SDS011;72375;59.302;18.204;2024-01-27T01:09:40;1.30;;;0.83;;
11663;SDS011;72375;59.302;18.204;2024-01-27T01:12:26;1.10;;;1.00;;
11663;SDS011;72375;59.302;18.204;2024-01-27T01:15:12;1.30;;;1.10;;
11663;SDS011;72375;59.302;18.204;2024-01-27T01:17:57;1.80;;;1.30;;
11663;SDS011;72375;59.302;18.204;2024-01-27T01:20:43;2.03;;;1.40;;
11663;SDS011;72375;59.302;18.204;2024-01-27T01:23:30;1.63;;;1.17;;
11663;SDS011;72375;59.302;18.204;2024-01-27T01:26:16;1.70;;;1.20;;
11663;SDS011;72375;59.302;18.204;2024-01-27T01:29:02;1.83;;;1.63;;
11663;SDS011;72375;59.302;18.204;2024-01-27T01:31:47;1.73;;;1.40;;
11663;SDS011;72375;59.302;18.204;2024-01-27T01:34:33;1.60;;;1.23;;
11663;SDS011;72375;59.302;18.204;2024-01-27T01:37:19;2.40;;;1.47;;
11663;SDS011;72375;59.302;18.204;2024-01-27T01:40:07;1.40;;;1.23;;
11663;SDS011;72375;59.302;18.204;2024-01-27T01:42:53;2.90;;;1.40;;
11663;SDS011;72375;59.302;18.204;2024-01-27T01:45:39;1.80;;;1.53;;
11663;SDS011;72375;59.302;18.204;2024-01-27T01:48:25;1.73;;;1.63;;
11663;SDS011;72375;59.302;18.204;2024-01-27T01:51:11;2.80;;;1.60;;
11663;SDS011;72375;59.302;18.204;2024-01-27T01:53:58;1.70;;;1.47;;
11663;SDS011;72375;59.302;18.204;2024-01-27T01:56:45;1.67;;;1.50;;
11663;SDS011;72375;59.302;18.204;2024-01-27T01:59:31;1.53;;;1.43;;
11663;SDS011;72375;59.302;18.204;2024-01-27T02:02:17;1.97;;;1.70;;
11663;SDS011;72375;59.302;18.204;2024-01-27T02:05:03;1.63;;;1.50;;
11663;SDS011;72375;59.302;18.204;2024-01-27T02:07:49;1.60;;;1.50;;
11663;SDS011;72375;59.302;18.204;2024-01-27T02:10:35;2.33;;;1.63;;
11663;SDS011;72375;59.302;18.204;2024-01-27T02:13:22;1.70;;;1.23;;
11663;SDS011;72375;59.302;18.204;2024-01-27T02:16:08;1.83;;;1.43;;
11663;SDS011;72375;59.302;18.204;2024-01-27T02:18:54;1.70;;;1.33;;
11663;SDS011;72375;59.302;18.204;2024-01-27T02:21:39;2.27;;;1.37;;
11663;SDS011;72375;59.302;18.204;2024-01-27T02:24:26;1.50;;;1.30;;
11663;SDS011;72375;59.302;18.204;2024-01-27T02:27:12;2.00;;;1.30;;
11663;SDS011;72375;59.302;18.204;2024-01-27T02:29:57;1.67;;;1.50;;
11663;SDS011;72375;59.302;18.204;2024-01-27T02:32:43;1.30;;;1.10;;
11663;SDS011;72375;59.302;18.204;2024-01-27T02:35:29;1.90;;;1.40;;
11663;SDS011;72375;59.302;18.204;2024-01-27T02:38:14;2.13;;;1.50;;
11663;SDS011;72375;59.302;18.204;2024-01-27T02:41:01;1.40;;;1.30;;
11663;SDS011;72375;59.302;18.204;2024-01-27T02:43:47;1.47;;;1.37;;
11663;SDS011;72375;59.302;18.204;2024-01-27T02:46:32;1.60;;;1.50;;
11663;SDS011;72375;59.302;18.204;2024-01-27T02:49:18;1.70;;;1.50;;
11663;SDS011;72375;59.302;18.204;2024-01-27T02:52:04;1.60;;;1.40;;
11663;SDS011;72375;59.302;18.204;2024-01-27T02:54:50;1.63;;;1.40;;
11663;SDS011;72375;59.302;18.204;2024-01-27T02:57:37;2.00;;;1.50;;
11663;SDS011;72375;59.302;18.204;2024-01-27T03:00:22;2.33;;;1.57;;
11663;SDS011;72375;59.302;18.204;2024-01-27T03:03:08;1.50;;;1.37;;
11663;SDS011;72375;59.302;18.204;2024-01-27T03:05:54;2.63;;;1.73;;
11663;SDS011;72375;59.302;18.204;2024-01-27T03:08:39;2.90;;;1.90;;
11663;SDS011;72375;59.302;18.204;2024-01-27T03:11:25;2.93;;;1.90;;
11663;SDS011;72375;59.302;18.204;2024-01-27T03:14:12;2.57;;;2.00;;
11663;SDS011;72375;59.302;18.204;2024-01-27T03:16:58;2.70;;;2.03;;
11663;SDS011;72375;59.302;18.204;2024-01-27T03:19:43;3.67;;;2.40;;
11663;SDS011;72375;59.302;18.204;2024-01-27T03:22:29;1.80;;;1.67;;
11663;SDS011;72375;59.302;18.204;2024-01-27T03:25:14;3.33;;;1.80;;
11663;SDS011;72375;59.302;18.204;2024-01-27T03:28:00;2.50;;;1.87;;
11663;SDS011;72375;59.302;18.204;2024-01-27T03:30:47;1.70;;;1.60;;
11663;SDS011;72375;59.302;18.204;2024-01-27T03:33:32;1.60;;;1.50;;
11663;SDS011;72375;59.302;18.204;2024-01-27T03:36:18;1.70;;;1.60;;
11663;SDS011;72375;59.302;18.204;2024-01-27T03:39:04;1.77;;;1.20;;
11663;SDS011;72375;59.302;18.204;2024-01-27T03:41:51;1.10;;;1.00;;
11663;SDS011;72375;59.302;18.204;2024-01-27T03:44:36;1.10;;;1.00;;
11663;SDS011;72375;59.302;18.204;2024-01-27T03:47:23;0.80;;;0.70;;
11663;SDS011;72375;59.302;18.204;2024-01-27T03:50:09;0.93;;;0.83;;
11663;SDS011;72375;59.302;18.204;2024-01-27T03:52:55;1.10;;;1.00;;
11663;SDS011;72375;59.302;18.204;2024-01-27T03:55:41;1.13;;;0.70;;
11663;SDS011;72375;59.302;18.204;2024-01-27T03:58:26;0.60;;;0.60;;
11663;SDS011;72375;59.302;18.204;2024-01-27T04:01:12;0.53;;;0.53;;
11663;SDS011;72375;59.302;18.204;2024-01-27T04:04:01;0.77;;;0.67;;
11663;SDS011;72375;59.302;18.204;2024-01-27T04:06:46;0.60;;;0.50;;
11663;SDS011;72375;59.302;18.204;2024-01-27T04:09:32;0.40;;;0.40;;
11663;SDS011;72375;59.302;18.204;2024-01-27T04:12:18;0.50;;;0.50;;
11663;SDS011;72375;59.302;18.204;2024-01-27T04:15:04;0.70;;;0.60;;
11663;SDS011;72375;59.302;18.204;2024-01-27T04:17:50;0.47;;;0.47;;
11663;SDS011;72375;59.302;18.204;2024-01-27T04:20:37;0.60;;;0.60;;
11663;SDS011;72375;59.302;18.204;2024-01-27T04:23:23;0.60;;;0.60;;
11663;SDS011;72375;59.302;18.204;2024-01-27T04:26:08;0.40;;;0.40;;
11663;SDS011;72375;59.302;18.204;2024-01-27T04:28:54;0.50;;;0.40;;
11663;SDS011;72375;59.302;18.204;2024-01-27T04:31:40;0.30;;;0.30;;
11663;SDS011;72375;59.302;18.204;2024-01-27T04:34:26;0.53;;;0.40;;
11663;SDS011;72375;59.302;18.204;2024-01-27T04:37:13;0.37;;;0.30;;
11663;SDS011;72375;59.302;18.204;2024-01-27T04:39:58;0.50;;;0.50;;
11663;SDS011;72375;59.302;18.204;2024-01-27T04:42:44;0.40;;;0.40;;
11663;SDS011;72375;59.302;18.204;2024-01-27T04:45:30;0.40;;;0.40;;
11663;SDS011;72375;59.302;18.204;2024-01-27T04:48:16;0.40;;;0.40;;
11663;SDS011;72375;59.302;18.204;2024-01-27T04:51:01;0.47;;;0.40;;
11663;SDS011;72375;59.302;18.204;2024-01-27T04:53:48;0.40;;;0.40;;
11663;SDS011;72375;59.302;18.204;2024-01-27T04:56:34;0.60;;;0.60;;
11663;SDS011;72375;59.302;18.204;2024-01-27T04:59:20;1.03;;;0.70;;
11663;SDS011;72375;59.302;18.204;2024-01-27T05:02:06;0.50;;;0.50;;
11663;SDS011;72375;59.302;18.204;2024-01-27T05:04:51;0.60;;;0.60;;
11663;SDS011;72375;59.302;18.204;2024-01-27T05:07:37;0.63;;;0.50;;
11663;SDS011;72375;59.302;18.204;2024-01-27T05:10:24;0.60;;;0.50;;
11663;SDS011;72375;59.302;18.204;2024-01-27T05:13:10;0.87;;;0.70;;
11663;SDS011;72375;59.302;18.204;2024-01-27T05:15:56;0.63;;;0.60;;
11663;SDS011;72375;59.302;18.204;2024-01-27T05:18:41;0.60;;;0.50;;
11663;SDS011;72375;59.302;18.204;2024-01-27T05:21:27;0.50;;;0.50;;
11663;SDS011;72375;59.302;18.204;2024-01-27T05:24:13;0.40;;;0.40;;
11663;SDS011;72375;59.302;18.204;2024-01-27T05:27:00;0.67;;;0.67;;
11663;SDS011;72375;59.302;18.204;2024-01-27T05:29:46;0.60;;;0.50;;
11663;SDS011;72375;59.302;18.204;2024-01-27T05:32:32;0.93;;;0.60;;
11663;SDS011;72375;59.302;18.204;2024-01-27T05:35:17;0.53;;;0.53;;
11663;SDS011;72375;59.302;18.204;2024-01-27T05:38:03;0.60;;;0.60;;
11663;SDS011;72375;59.302;18.204;2024-01-27T05:40:49;0.50;;;0.50;;
11663;SDS011;72375;59.302;18.204;2024-01-27T05:43:35;0.60;;;0.60;;
11663;SDS011;72375;59.302;18.204;2024-01-27T05:46:21;0.43;;;0.43;;
11663;SDS011;72375;59.302;18.204;2024-01-27T05:49:06;0.50;;;0.50;;
11663;SDS011;72375;59.302;18.204;2024-01-27T05:51:52;0.70;;;0.70;;
11663;SDS011;72375;59.302;18.204;2024-01-27T05:54:39;1.00;;;0.80;;
11663;SDS011;72375;59.302;18.204;2024-01-27T05:57:25;0.50;;;0.50;;
11663;SDS011;72375;59.302;18.204;2024-01-27T06:00:13;0.90;;;0.60;;
11663;SDS011;72375;59.302;18.204;2024-01-27T06:02:58;0.47;;;0.47;;
11663;SDS011;72375;59.302;18.204;2024-01-27T06:05:44;0.70;;;0.60;;
11663;SDS011;72375;59.302;18.204;2024-01-27T06:08:30;0.97;;;0.70;;
11663;SDS011;72375;59.302;18.204;2024-01-27T06:11:22;0.53;;;0.40;;
11663;SDS011;72375;59.302;18.204;2024-01-27T06:14:08;0.47;;;0.40;;
11663;SDS011;72375;59.302;18.204;2024-01-27T06:16:55;0.50;;;0.50;;
11663;SDS011;72375;59.302;18.204;2024-01-27T06:19:42;0.67;;;0.67;;
11663;SDS011;72375;59.302;18.204;2024-01-27T06:22:28;1.13;;;0.70;;
11663;SDS011;72375;59.302;18.204;2024-01-27T06:25:15;0.90;;;0.67;;
11663;SDS011;72375;59.302;18.204;2024-01-27T06:28:01;0.83;;;0.60;;
11663;SDS011;72375;59.302;18.204;2024-01-27T06:30:47;0.80;;;0.53;;
11663;SDS011;72375;59.302;18.204;2024-01-27T06:33:34;0.60;;;0.60;;
11663;SDS011;72375;59.302;18.204;2024-01-27T06:36:19;0.77;;;0.50;;
11663;SDS011;72375;59.302;18.204;2024-01-27T06:39:08;0.87;;;0.50;;
11663;SDS011;72375;59.302;18.204;2024-01-27T06:41:54;0.60;;;0.60;;
11663;SDS011;72375;59.302;18.204;2024-01-27T06:44:39;0.90;;;0.50;;
11663;SDS011;72375;59.302;18.204;2024-01-27T06:47:25;0.70;;;0.50;;
11663;SDS011;72375;59.302;18.204;2024-01-27T06:50:13;0.63;;;0.60;;
11663;SDS011;72375;59.302;18.204;2024-01-27T06:52:59;0.77;;;0.60;;
11663;SDS011;72375;59.302;18.204;2024-01-27T06:55:45;0.70;;;0.60;;
11663;SDS011;72375;59.302;18.204;2024-01-27T06:58:30;0.70;;;0.67;;
11663;SDS011;72375;59.302;18.204;2024-01-27T07:01:16;0.63;;;0.63;;
11663;SDS011;72375;59.302;18.204;2024-01-27T07:04:02;0.90;;;0.50;;
11663;SDS011;72375;59.302;18.204;2024-01-27T07:06:50;0.73;;;0.60;;
11663;SDS011;72375;59.302;18.204;2024-01-27T07:09:36;1.00;;;0.57;;
11663;SDS011;72375;59.302;18.204;2024-01-27T07:12:21;0.67;;;0.67;;
11663;SDS011;72375;59.302;18.204;2024-01-27T07:15:07;1.30;;;0.77;;
11663;SDS011;72375;59.302;18.204;2024-01-27T07:17:53;0.50;;;0.50;;
11663;SDS011;72375;59.302;18.204;2024-01-27T07:20:39;0.60;;;0.60;;
11663;SDS011;72375;59.302;18.204;2024-01-27T07:23:26;0.80;;;0.60;;
11663;SDS011;72375;59.302;18.204;2024-01-27T07:26:12;0.57;;;0.50;;
11663;SDS011;72375;59.302;18.204;2024-01-27T07:28:58;0.93;;;0.60;;
11663;SDS011;72375;59.302;18.204;2024-01-27T07:31:43;0.73;;;0.63;;
11663;SDS011;72375;59.302;18.204;2024-01-27T07:34:29;0.50;;;0.50;;
11663;SDS011;72375;59.302;18.204;2024-01-27T07:37:15;0.90;;;0.80;;
11663;SDS011;72375;59.302;18.204;2024-01-27T07:40:02;1.37;;;0.70;;
11663;SDS011;72375;59.302;18.204;2024-01-27T07:42:49;1.77;;;0.70;;
11663;SDS011;72375;59.302;18.204;2024-01-27T07:45:35;0.70;;;0.60;;
11663;SDS011;72375;59.302;18.204;2024-01-27T07:48:20;0.73;;;0.60;;
11663;SDS011;72375;59.302;18.204;2024-01-27T07:51:06;1.50;;;0.70;;
11663;SDS011;72375;59.302;18.204;2024-01-27T07:53:52;0.83;;;0.53;;
11663;SDS011;72375;59.302;18.204;2024-01-27T07:56:39;0.50;;;0.50;;
11663;SDS011;72375;59.302;18.204;2024-01-27T07:59:25;1.70;;;0.50;;
11663;SDS011;72375;59.302;18.204;2024-01-27T08:02:11;1.67;;;0.63;;
11663;SDS011;72375;59.302;18.204;2024-01-27T08:04:56;1.30;;;0.80;;
11663;SDS011;72375;59.302;18.204;2024-01-27T08:07:42;2.30;;;0.97;;
11663;SDS011;72375;59.302;18.204;2024-01-27T08:10:28;0.70;;;0.43;;
11663;SDS011;72375;59.302;18.204;2024-01-27T08:13:15;0.60;;;0.60;;
11663;SDS011;72375;59.302;18.204;2024-01-27T08:16:00;1.00;;;0.70;;
11663;SDS011;72375;59.302;18.204;2024-01-27T08:18:46;3.43;;;0.80;;
11663;SDS011;72375;59.302;18.204;2024-01-27T08:21:32;2.47;;;0.60;;
11663;SDS011;72375;59.302;18.204;2024-01-27T08:24:17;1.20;;;0.70;;
11663;SDS011;72375;59.302;18.204;2024-01-27T08:27:03;2.80;;;0.70;;
11663;SDS011;72375;59.302;18.204;2024-01-27T08:29:50;2.90;;;0.60;;
11663;SDS011;72375;59.302;18.204;2024-01-27T08:32:37;2.37;;;0.80;;
11663;SDS011;72375;59.302;18.204;2024-01-27T08:35:22;2.10;;;0.80;;
11663;SDS011;72375;59.302;18.204;2024-01-27T08:38:08;2.47;;;0.60;;
11663;SDS011;72375;59.302;18.204;2024-01-27T08:40:54;1.77;;;1.00;;
11663;SDS011;72375;59.302;18.204;2024-01-27T08:43:39;2.37;;;0.97;;
11663;SDS011;72375;59.302;18.204;2024-01-27T08:46:26;1.93;;;1.43;;
11663;SDS011;72375;59.302;18.204;2024-01-27T08:49:12;2.33;;;0.83;;
11663;SDS011;72375;59.302;18.204;2024-01-27T08:51:57;3.13;;;0.80;;
11663;SDS011;72375;59.302;18.204;2024-01-27T08:54:43;1.30;;;0.90;;
11663;SDS011;72375;59.302;18.204;2024-01-27T08:57:29;3.00;;;1.17;;
11663;SDS011;72375;59.302;18.204;2024-01-27T09:00:15;4.53;;;1.17;;
11663;SDS011;72375;59.302;18.204;2024-01-27T09:03:02;3.17;;;1.23;;
11663;SDS011;72375;59.302;18.204;2024-01-27T09:05:49;1.87;;;0.97;;
11663;SDS011;72375;59.302;18.204;2024-01-27T09:08:34;4.00;;;1.20;;
11663;SDS011;72375;59.302;18.204;2024-01-27T09:11:20;2.73;;;1.00;;
11663;SDS011;72375;59.302;18.204;2024-01-27T09:14:07;4.60;;;1.20;;
11663;SDS011;72375;59.302;18.204;2024-01-27T09:16:52;2.80;;;1.13;;
11663;SDS011;72375;59.302;18.204;2024-01-27T09:19:42;2.23;;;1.10;;
11663;SDS011;72375;59.302;18.204;2024-01-27T09:22:28;2.77;;;1.10;;
11663;SDS011;72375;59.302;18.204;2024-01-27T09:25:13;4.07;;;1.20;;
11663;SDS011;72375;59.302;18.204;2024-01-27T09:27:59;2.80;;;1.53;;
11663;SDS011;72375;59.302;18.204;2024-01-27T09:30:44;2.97;;;1.17;;
11663;SDS011;72375;59.302;18.204;2024-01-27T09:33:30;2.77;;;1.50;;
11663;SDS011;72375;59.302;18.204;2024-01-27T09:36:19;4.10;;;1.27;;
11663;SDS011;72375;59.302;18.204;2024-01-27T09:39:05;3.50;;;1.35;;
11663;SDS011;72375;59.302;18.204;2024-01-27T09:41:51;3.30;;;1.40;;
11663;SDS011;72375;59.302;18.204;2024-01-27T09:44:38;2.35;;;1.00;;
11663;SDS011;72375;59.302;18.204;2024-01-27T09:47:24;3.92;;;1.38;;
11663;SDS011;72375;59.302;18.204;2024-01-27T09:50:10;3.22;;;1.30;;
11663;SDS011;72375;59.302;18.204;2024-01-27T09:52:58;2.63;;;1.00;;
11663;SDS011;72375;59.302;18.204;2024-01-27T09:55:44;3.97;;;1.10;;
11663;SDS011;72375;59.302;18.204;2024-01-27T09:58:31;3.28;;;1.15;;
11663;SDS011;72375;59.302;18.204;2024-01-27T10:01:16;3.30;;;1.30;;
11663;SDS011;72375;59.302;18.204;2024-01-27T10:04:02;5.20;;;1.23;;
11663;SDS011;72375;59.302;18.204;2024-01-27T10:06:48;4.00;;;1.47;;
11663;SDS011;72375;59.302;18.204;2024-01-27T10:09:36;3.08;;;1.60;;
11663;SDS011;72375;59.302;18.204;2024-01-27T10:12:22;2.63;;;1.50;;
11663;SDS011;72375;59.302;18.204;2024-01-27T10:15:20;3.88;;;1.35;;
11663;SDS011;72375;59.302;18.204;2024-01-27T10:18:06;3.03;;;1.55;;
11663;SDS011;72375;59.302;18.204;2024-01-27T10:20:52;4.03;;;2.08;;
11663;SDS011;72375;59.302;18.204;2024-01-27T10:23:38;4.22;;;1.90;;
11663;SDS011;72375;59.302;18.204;2024-01-27T10:26:25;5.97;;;1.63;;
11663;SDS011;72375;59.302;18.204;2024-01-27T10:29:10;6.82;;;2.00;;
11663;SDS011;72375;59.302;18.204;2024-01-27T10:32:06;5.00;;;1.85;;
11663;SDS011;72375;59.302;18.204;2024-01-27T10:35:01;5.72;;;1.38;;
11663;SDS011;72375;59.302;18.204;2024-01-27T10:37:50;3.15;;;1.40;;
11663;SDS011;72375;59.302;18.204;2024-01-27T10:40:36;3.70;;;1.25;;
11663;SDS011;72375;59.302;18.204;2024-01-27T10:43:23;3.38;;;1.50;;
11663;SDS011;72375;59.302;18.204;2024-01-27T10:46:09;4.53;;;1.90;;
11663;SDS011;72375;59.302;18.204;2024-01-27T10:48:58;3.83;;;1.65;;
11663;SDS011;72375;59.302;18.204;2024-01-27T10:51:45;5.15;;;1.65;;
11663;SDS011;72375;59.302;18.204;2024-01-27T10:54:34;4.88;;;1.55;;
11663;SDS011;72375;59.302;18.204;2024-01-27T10:57:21;3.28;;;1.50;;
11663;SDS011;72375;59.302;18.204;2024-01-27T11:00:11;4.00;;;1.20;;
11663;SDS011;72375;59.302;18.204;2024-01-27T11:03:01;5.47;;;1.50;;
11663;SDS011;72375;59.302;18.204;2024-01-27T11:05:48;4.00;;;1.60;;
11663;SDS011;72375;59.302;18.204;2024-01-27T11:08:35;4.25;;;1.58;;
11663;SDS011;72375;59.302;18.204;2024-01-27T11:11:22;3.50;;;1.55;;
11663;SDS011;72375;59.302;18.204;2024-01-27T11:14:08;5.47;;;1.55;;
11663;SDS011;72375;59.302;18.204;2024-01-27T11:16:56;4.05;;;1.20;;
11663;SDS011;72375;59.302;18.204;2024-01-27T11:19:42;3.60;;;1.48;;
11663;SDS011;72375;59.302;18.204;2024-01-27T11:22:29;2.45;;;1.48;;
11663;SDS011;72375;59.302;18.204;2024-01-27T11:25:16;4.72;;;1.50;;
11663;SDS011;72375;59.302;18.204;2024-01-27T11:28:10;4.13;;;1.40;;
11663;SDS011;72375;59.302;18.204;2024-01-27T11:30:57;5.80;;;1.90;;
11663;SDS011;72375;59.302;18.204;2024-01-27T11:33:44;3.92;;;1.65;;
11663;SDS011;72375;59.302;18.204;2024-01-27T11:36:34;5.97;;;2.05;;
11663;SDS011;72375;59.302;18.204;2024-01-27T11:39:24;4.47;;;1.55;;
11663;SDS011;72375;59.302;18.204;2024-01-27T11:42:11;4.45;;;1.80;;
11663;SDS011;72375;59.302;18.204;2024-01-27T11:44:57;3.08;;;1.42;;
11663;SDS011;72375;59.302;18.204;2024-01-27T11:47:43;4.15;;;2.10;;
11663;SDS011;72375;59.302;18.204;2024-01-27T11:50:29;2.72;;;1.25;;
11663;SDS011;72375;59.302;18.204;2024-01-27T11:53:15;6.15;;;1.52;;
11663;SDS011;72375;59.302;18.204;2024-01-27T11:56:01;4.45;;;1.50;;
11663;SDS011;72375;59.302;18.204;2024-01-27T11:58:47;3.30;;;1.30;;
11663;SDS011;72375;59.302;18.204;2024-01-27T12:01:33;3.90;;;1.38;;
11663;SDS011;72375;59.302;18.204;2024-01-27T12:04:19;2.80;;;1.33;;
11663;SDS011;72375;59.302;18.204;2024-01-27T12:07:07;4.18;;;1.50;;
11663;SDS011;72375;59.302;18.204;2024-01-27T12:09:53;3.00;;;1.48;;
11663;SDS011;72375;59.302;18.204;2024-01-27T12:12:38;5.10;;;1.40;;
11663;SDS011;72375;59.302;18.204;2024-01-27T12:15:24;4.97;;;1.92;;
11663;SDS011;72375;59.302;18.204;2024-01-27T12:18:10;4.20;;;1.95;;
11663;SDS011;72375;59.302;18.204;2024-01-27T12:20:57;2.67;;;1.48;;
11663;SDS011;72375;59.302;18.204;2024-01-27T12:23:51;3.92;;;1.50;;
11663;SDS011;72375;59.302;18.204;2024-01-27T12:26:37;4.15;;;1.60;;
11663;SDS011;72375;59.302;18.204;2024-01-27T12:29:25;2.88;;;1.70;;
11663;SDS011;72375;59.302;18.204;2024-01-27T12:32:12;3.53;;;1.50;;
11663;SDS011;72375;59.302;18.204;2024-01-27T12:34:58;3.92;;;1.58;;
11663;SDS011;72375;59.302;18.204;2024-01-27T12:37:44;2.45;;;1.20;;
11663;SDS011;72375;59.302;18.204;2024-01-27T12:40:31;2.20;;;1.10;;
11663;SDS011;72375;59.302;18.204;2024-01-27T12:43:17;3.83;;;1.70;;
11663;SDS011;72375;59.302;18.204;2024-01-27T12:46:02;4.15;;;1.27;;
11663;SDS011;72375;59.302;18.204;2024-01-27T12:48:48;4.13;;;1.30;;
11663;SDS011;72375;59.302;18.204;2024-01-27T12:51:34;3.95;;;1.50;;
11663;SDS011;72375;59.302;18.204;2024-01-27T12:54:19;3.63;;;1.40;;
11663;SDS011;72375;59.302;18.204;2024-01-27T12:57:06;3.97;;;1.45;;
11663;SDS011;72375;59.302;18.204;2024-01-27T12:59:52;3.38;;;1.60;;
11663;SDS011;72375;59.302;18.204;2024-01-27T13:02:39;5.20;;;1.50;;
11663;SDS011;72375;59.302;18.204;2024-01-27T13:05:25;4.97;;;1.45;;
11663;SDS011;72375;59.302;18.204;2024-01-27T13:08:10;3.08;;;1.42;;
11663;SDS011;72375;59.302;18.204;2024-01-27T13:10:56;3.72;;;1.48;;
11663;SDS011;72375;59.302;18.204;2024-01-27T13:13:43;5.93;;;1.95;;
11663;SDS011;72375;59.302;18.204;2024-01-27T13:16:28;5.18;;;1.90;;
11663;SDS011;72375;59.302;18.204;2024-01-27T13:19:14;4.03;;;1.35;;
11663;SDS011;72375;59.302;18.204;2024-01-27T13:22:00;5.20;;;1.67;;
11663;SDS011;72375;59.302;18.204;2024-01-27T13:24:46;4.00;;;1.30;;
11663;SDS011;72375;59.302;18.204;2024-01-27T13:27:31;3.05;;;1.20;;
11663;SDS011;72375;59.302;18.204;2024-01-27T13:30:19;5.93;;;1.37;;
11663;SDS011;72375;59.302;18.204;2024-01-27T13:33:05;4.23;;;1.40;;
11663;SDS011;72375;59.302;18.204;2024-01-27T13:35:50;4.70;;;1.45;;
11663;SDS011;72375;59.302;18.204;2024-01-27T13:38:36;3.57;;;1.03;;
11663;SDS011;72375;59.302;18.204;2024-01-27T13:41:22;3.17;;;1.30;;
11663;SDS011;72375;59.302;18.204;2024-01-27T13:44:07;4.07;;;1.30;;
11663;SDS011;72375;59.302;18.204;2024-01-27T13:46:54;3.03;;;1.33;;
11663;SDS011;72375;59.302;18.204;2024-01-27T13:49:44;3.57;;;1.57;;
11663;SDS011;72375;59.302;18.204;2024-01-27T13:52:30;4.23;;;1.37;;
11663;SDS011;72375;59.302;18.204;2024-01-27T13:55:15;2.70;;;1.30;;
11663;SDS011;72375;59.302;18.204;2024-01-27T13:58:01;4.30;;;1.40;;
11663;SDS011;72375;59.302;18.204;2024-01-27T14:00:47;5.93;;;1.67;;
11663;SDS011;72375;59.302;18.204;2024-01-27T14:03:34;3.67;;;1.63;;
11663;SDS011;72375;59.302;18.204;2024-01-27T14:06:21;3.57;;;1.90;;
11663;SDS011;72375;59.302;18.204;2024-01-27T14:09:06;4.43;;;1.20;;
11663;SDS011;72375;59.302;18.204;2024-01-27T14:11:52;2.80;;;1.43;;
11663;SDS011;72375;59.302;18.204;2024-01-27T14:14:38;4.67;;;1.43;;
11663;SDS011;72375;59.302;18.204;2024-01-27T14:17:25;4.50;;;1.30;;
11663;SDS011;72375;59.302;18.204;2024-01-27T14:20:12;5.93;;;1.70;;
11663;SDS011;72375;59.302;18.204;2024-01-27T14:22:58;7.70;;;2.03;;
11663;SDS011;72375;59.302;18.204;2024-01-27T14:25:44;3.97;;;1.50;;
11663;SDS011;72375;59.302;18.204;2024-01-27T14:28:30;3.47;;;1.30;;
11663;SDS011;72375;59.302;18.204;2024-01-27T14:31:15;6.13;;;1.70;;
11663;SDS011;72375;59.302;18.204;2024-01-27T14:34:01;8.43;;;1.83;;
11663;SDS011;72375;59.302;18.204;2024-01-27T14:36:48;3.80;;;1.10;;
11663;SDS011;72375;59.302;18.204;2024-01-27T14:39:34;3.93;;;1.33;;
11663;SDS011;72375;59.302;18.204;2024-01-27T14:42:20;3.67;;;1.50;;
11663;SDS011;72375;59.302;18.204;2024-01-27T14:45:06;4.13;;;1.50;;
11663;SDS011;72375;59.302;18.204;2024-01-27T14:47:53;3.67;;;1.50;;
11663;SDS011;72375;59.302;18.204;2024-01-27T14:50:39;3.03;;;1.37;;
11663;SDS011;72375;59.302;18.204;2024-01-27T14:53:26;4.73;;;1.27;;
11663;SDS011;72375;59.302;18.204;2024-01-27T14:56:11;3.43;;;1.17;;
11663;SDS011;72375;59.302;18.204;2024-01-27T14:58:57;4.73;;;1.80;;
11663;SDS011;72375;59.302;18.204;2024-01-27T15:01:43;3.43;;;1.50;;
11663;SDS011;72375;59.302;18.204;2024-01-27T15:04:30;5.10;;;1.53;;
11663;SDS011;72375;59.302;18.204;2024-01-27T15:07:16;3.00;;;1.70;;
11663;SDS011;72375;59.302;18.204;2024-01-27T15:10:04;5.67;;;2.10;;
11663;SDS011;72375;59.302;18.204;2024-01-27T15:12:50;6.57;;;2.83;;
11663;SDS011;72375;59.302;18.204;2024-01-27T15:15:36;4.47;;;2.43;;
11663;SDS011;72375;59.302;18.204;2024-01-27T15:18:21;8.03;;;3.53;;
11663;SDS011;72375;59.302;18.204;2024-01-27T15:21:07;3.77;;;2.43;;
11663;SDS011;72375;59.302;18.204;2024-01-27T15:23:53;6.77;;;2.87;;
11663;SDS011;72375;59.302;18.204;2024-01-27T15:26:40;5.47;;;2.43;;
11663;SDS011;72375;59.302;18.204;2024-01-27T15:29:26;7.77;;;3.53;;
11663;SDS011;72375;59.302;18.204;2024-01-27T15:32:12;4.53;;;3.10;;
11663;SDS011;72375;59.302;18.204;2024-01-27T15:35:00;7.03;;;3.37;;
11663;SDS011;72375;59.302;18.204;2024-01-27T15:37:46;5.13;;;3.47;;
11663;SDS011;72375;59.302;18.204;2024-01-27T15:40:32;7.57;;;2.80;;
11663;SDS011;72375;59.302;18.204;2024-01-27T15:43:19;5.70;;;2.63;;
11663;SDS011;72375;59.302;18.204;2024-01-27T15:46:06;6.77;;;3.20;;
11663;SDS011;72375;59.302;18.204;2024-01-27T15:48:53;5.00;;;2.90;;
11663;SDS011;72375;59.302;18.204;2024-01-27T15:51:39;6.97;;;3.27;;
11663;SDS011;72375;59.302;18.204;2024-01-27T15:54:25;6.80;;;4.53;;
11663;SDS011;72375;59.302;18.204;2024-01-27T15:57:11;4.77;;;4.27;;
11663;SDS011;72375;59.302;18.204;2024-01-27T15:59:58;6.00;;;4.03;;
11663;SDS011;72375;59.302;18.204;2024-01-27T16:02:44;5.77;;;4.30;;
11663;SDS011;72375;59.302;18.204;2024-01-27T16:05:30;7.40;;;4.83;;
11663;SDS011;72375;59.302;18.204;2024-01-27T16:08:16;7.07;;;4.37;;
11663;SDS011;72375;59.302;18.204;2024-01-27T16:11:02;5.37;;;4.30;;
11663;SDS011;72375;59.302;18.204;2024-01-27T16:13:47;5.40;;;4.03;;
11663;SDS011;72375;59.302;18.204;2024-01-27T16:16:35;6.00;;;3.67;;
11663;SDS011;72375;59.302;18.204;2024-01-27T16:19:20;8.97;;;4.10;;
11663;SDS011;72375;59.302;18.204;2024-01-27T16:22:06;5.70;;;3.93;;
11663;SDS011;72375;59.302;18.204;2024-01-27T16:24:52;5.87;;;3.13;;